This is the latest recevied weather packets stored in our database for station/object KV4OP. If no packets are shown the sender has not sent any weather packets the latest 10 day(s).
| Time | Temp. | Humidity | Pressure | Rain* | Wind** | Luminosity | Snow |
|---|---|---|---|---|---|---|---|
| 1777484114 | 28.89° C | 56% | 1015.8 hPa | 0 mm | - | - | - |
| 1777483815 | 30° C | 55% | 1015.9 hPa | 0 mm | - | - | - |
| 1777483513 | 29.44° C | 57% | 1016.1 hPa | 0 mm | - | - | - |
| 1777483214 | 30° C | 57% | 1016.1 hPa | 0 mm | - | - | - |
| 1777482932 | 30° C | 55% | 1016.3 hPa | 0 mm | - | - | - |
| 1777482611 | 30° C | 55% | 1016.3 hPa | 0 mm | - | - | - |
| 1777482311 | 29.44° C | 56% | 1016.3 hPa | 0 mm | - | - | - |
| 1777482015 | 30° C | 54% | 1016.4 hPa | 0 mm | - | - | - |
| 1777481709 | 29.44° C | 56% | 1016.7 hPa | 0 mm | - | - | - |
| 1777481409 | 28.89° C | 59% | 1016.6 hPa | 0 mm | - | - | - |
| 1777481110 | 29.44° C | 59% | 1016.8 hPa | 0 mm | - | - | - |
| 1777480808 | 28.89° C | 60% | 1016.7 hPa | 0 mm | - | - | - |
| 1777480508 | 28.89° C | 59% | 1016.8 hPa | 0 mm | - | - | - |
| 1777480209 | 28.89° C | 59% | 1016.8 hPa | 0 mm | - | - | - |
| 1777479907 | 28.89° C | 59% | 1016.9 hPa | 0 mm | - | - | - |
| 1777479607 | 28.33° C | 59% | 1017 hPa | 0 mm | - | - | - |
| 1777479307 | 28.33° C | 59% | 1017.2 hPa | 0 mm | - | - | - |
| 1777479007 | 28.33° C | 61% | 1017.3 hPa | 0 mm | - | - | - |
| 1777478706 | 28.89° C | 57% | 1017.5 hPa | 0 mm | - | - | - |
| 1777478409 | 28.89° C | 58% | 1017.6 hPa | 0 mm | - | - | - |
| 1777478105 | 28.33° C | 60% | 1017.7 hPa | 0 mm | - | - | - |
| 1777477803 | 28.33° C | 59% | 1017.7 hPa | 0 mm | - | - | - |
| 1777477502 | 27.78° C | 61% | 1017.8 hPa | 0 mm | - | - | - |
| 1777477201 | 27.78° C | 62% | 1017.9 hPa | 0 mm | - | - | - |
| 1777476903 | 28.33° C | 62% | 1018 hPa | 0 mm | - | - | - |
* Rain latest hour (hover to see other rain measurements)
** Current wind speed in m/s (hover to see current wind gust speed)